Time;durP1;ratioP1;P1;durP2;ratioP2;P2;SDS_P1;SDS_P2;PMS_P1;PMS_P2;Temp;Humidity;BMP_temperature;BMP_pressure;BME280_temperature;BME280_humidity;BME280_pressure;Samples;Min_cycle;Max_cycle;Signal;HPM_P1;HPM_P2
2022/02/11 00:07:27;;;;;;;41.77;27.80;;;;;;;1.05;95.21;100813.30;1415167;91;21692;-79
2022/02/11 00:09:54;;;;;;;49.07;28.80;;;;;;;1.05;94.72;100816.74;1404452;92;22555;-78
2022/02/11 00:12:22;;;;;;;36.97;25.17;;;;;;;1.06;94.69;100813.20;1419039;91;21719;-78
2022/02/11 00:17:33;;;;;;;44.60;28.67;;;;;;;1.07;93.86;100814.07;1376964;95;21941;-78
2022/02/11 00:20:01;;;;;;;45.27;29.33;;;;;;;1.10;94.21;100816.52;1406598;91;22746;-78
2022/02/11 00:22:28;;;;;;;41.37;27.73;;;;;;;1.15;94.37;100807.98;1407435;91;22598;-79
2022/02/11 00:24:55;;;;;;;39.13;25.63;;;;;;;1.15;94.21;100800.16;1417407;91;21675;-79
2022/02/11 00:32:43;;;;;;;40.23;25.43;;;;;;;1.17;93.19;100802.23;1420758;92;22559;-78
2022/02/11 00:35:11;;;;;;;31.10;20.87;;;;;;;1.17;93.24;100800.94;1424436;91;24048;-79
2022/02/11 00:37:34;;;;;;;31.10;21.03;;;;;;;1.11;92.76;100797.34;1421510;90;21747;-79
2022/02/11 01:02:10;;;;;;;32.57;22.27;;;;;;;0.98;92.82;100785.84;1424429;92;21520;-78
2022/02/11 01:02:11;;;;;;;32.87;23.23;;;;;;;0.95;92.48;100783.39;1404459;92;21715;-78
2022/02/11 01:04:18;;;;;;;31.53;22.83;;;;;;;0.86;92.05;100780.35;1422669;91;22553;-77
2022/02/11 01:06:45;;;;;;;36.57;25.67;;;;;;;0.72;91.34;100782.80;1425953;91;21745;-78
2022/02/11 01:09:14;;;;;;;36.80;25.07;;;;;;;0.56;91.17;100776.65;1420115;90;21517;-78
2022/02/11 01:11:54;;;;;;;34.47;26.97;;;;;;;0.46;91.77;100776.23;1410945;92;21634;-78
2022/02/11 01:14:33;;;;;;;37.37;26.57;;;;;;;0.43;92.49;100778.55;1422509;91;22432;-79
2022/02/11 01:16:56;;;;;;;41.80;24.33;;;;;;;0.41;92.31;100772.57;1418596;92;21723;-79
2022/02/11 01:22:10;;;;;;;36.97;23.80;;;;;;;0.37;92.14;100780.59;1420292;90;21922;-78
2022/02/11 01:32:20;;;;;;;34.30;24.43;;;;;;;0.14;93.08;100760.86;1419972;91;21852;-79
2022/02/11 01:34:46;;;;;;;34.67;23.50;;;;;;;0.14;92.76;100763.47;1415704;92;23232;-79
2022/02/11 01:37:19;;;;;;;34.03;22.07;;;;;;;0.15;92.98;100771.68;1417095;92;21889;-79
2022/02/11 01:46:22;;;;;;;33.07;22.63;;;;;;;-0.13;93.55;100795.53;1370082;94;21844;-78
2022/02/11 01:53:21;;;;;;;36.77;25.12;;;;;;;-0.29;94.32;100815.75;1420293;91;23606;-78
2022/02/11 02:01:57;;;;;;;38.02;25.00;;;;;;;-0.27;95.17;100806.56;1416756;91;21672;-78
2022/02/11 02:12:35;;;;;;;28.10;20.83;;;;;;;-0.32;96.55;100796.81;1420930;92;23488;-79
2022/02/11 02:15:28;;;;;;;28.92;21.90;;;;;;;-0.31;96.52;100790.72;1424407;92;22512;-80
2022/02/11 02:25:42;;;;;;;30.90;21.40;;;;;;;-0.10;96.02;100777.18;1420888;91;22375;-78
2022/02/11 02:33:55;;;;;;;37.30;23.93;;;;;;;-0.02;95.58;100768.10;1424196;91;22612;-78
2022/02/11 02:39:15;;;;;;;34.03;22.37;;;;;;;-0.05;95.21;100759.60;1427036;92;21428;-78
2022/02/11 02:58:10;;;;;;;26.60;18.92;;;;;;;-0.12;95.32;100772.03;1419769;92;22273;-79
2022/02/11 03:56:07;;;;;;;32.05;21.42;;;;;;;-0.71;95.56;100814.58;1411638;92;21376;-78
2022/02/11 04:26:02;;;;;;;29.52;20.50;;;;;;;-0.92;96.37;100817.19;1410061;92;21449;-79
2022/02/11 04:55:24;;;;;;;40.05;21.25;;;;;;;-0.47;95.32;100831.70;1420135;91;22322;-77
2022/02/11 05:00:40;;;;;;;30.73;19.67;;;;;;;-0.37;95.25;100839.12;1420865;91;21442;-77
2022/02/11 05:03:08;;;;;;;33.02;20.95;;;;;;;-0.36;94.92;100840.80;1425731;91;22132;-77
2022/02/11 05:05:50;;;;;;;30.95;21.37;;;;;;;-0.30;95.17;100834.02;1426724;91;21436;-77
2022/02/11 05:08:26;;;;;;;35.10;22.98;;;;;;;-0.27;94.96;100826.91;1421043;91;22418;-78
2022/02/11 05:10:56;;;;;;;30.75;19.27;;;;;;;-0.23;94.78;100823.73;1424356;91;21540;-79
2022/02/11 05:13:25;;;;;;;33.40;21.43;;;;;;;-0.24;94.37;100830.67;1418375;92;21923;-79
2022/02/11 05:15:52;;;;;;;28.47;18.80;;;;;;;-0.22;94.72;100834.52;1423910;91;21610;-78
2022/02/11 05:18:19;;;;;;;34.08;21.75;;;;;;;-0.25;94.40;100838.56;1428609;91;21479;-79
2022/02/11 05:20:46;;;;;;;33.47;21.93;;;;;;;-0.28;94.60;100860.81;1422844;91;21443;-78
2022/02/11 05:23:15;;;;;;;23.22;14.28;;;;;;;-0.35;94.55;100855.02;1416347;91;22644;-79
2022/02/11 05:25:44;;;;;;;26.55;18.35;;;;;;;-0.40;94.38;100863.50;1420566;92;21465;-79
2022/02/11 05:28:12;;;;;;;29.23;19.82;;;;;;;-0.56;94.89;100856.80;1428685;92;21369;-79
2022/02/11 05:30:40;;;;;;;30.60;18.32;;;;;;;-0.60;95.29;100860.92;1418548;92;21398;-78
2022/02/11 05:33:24;;;;;;;24.60;17.02;;;;;;;-0.56;95.33;100858.56;1420308;91;21494;-78
2022/02/11 05:35:51;;;;;;;24.93;17.27;;;;;;;-0.54;95.49;100852.39;1421207;91;22302;-78
2022/02/11 05:38:19;;;;;;;27.52;18.52;;;;;;;-0.47;95.29;100856.86;1425848;91;22151;-78
2022/02/11 05:40:46;;;;;;;25.73;17.60;;;;;;;-0.52;94.84;100854.48;1427341;91;21412;-78
2022/02/11 05:43:13;;;;;;;25.48;17.32;;;;;;;-0.50;95.24;100856.99;1420431;91;21610;-79
2022/02/11 05:45:40;;;;;;;23.95;15.98;;;;;;;-0.48;95.51;100866.88;1425994;90;21450;-79
2022/02/11 05:48:09;;;;;;;23.42;16.52;;;;;;;-0.55;95.49;100868.88;1429808;91;21502;-79
2022/02/11 05:50:37;;;;;;;24.25;17.23;;;;;;;-0.64;95.37;100865.38;1427611;91;21428;-80
2022/02/11 05:53:05;;;;;;;22.80;15.15;;;;;;;-0.67;94.94;100874.61;1423944;91;21383;-79
2022/02/11 05:55:34;;;;;;;27.63;18.63;;;;;;;-0.62;94.70;100881.77;1428184;91;22477;-79
2022/02/11 05:58:01;;;;;;;24.87;16.52;;;;;;;-0.60;95.11;100887.76;1425500;91;21565;-80
2022/02/11 06:00:29;;;;;;;23.30;16.93;;;;;;;-0.58;95.20;100884.61;1433569;91;21419;-80
2022/02/11 06:02:56;;;;;;;26.82;17.50;;;;;;;-0.58;95.08;100888.52;1422057;91;21642;-80
2022/02/11 06:05:23;;;;;;;23.40;15.63;;;;;;;-0.56;94.97;100889.30;1421683;91;21582;-77
2022/02/11 06:07:50;;;;;;;27.53;18.00;;;;;;;-0.61;95.23;100890.41;1428817;91;22658;-77
2022/02/11 06:10:17;;;;;;;25.13;17.87;;;;;;;-0.62;94.97;100874.43;1432783;91;24398;-78
2022/02/11 06:12:44;;;;;;;21.62;14.90;;;;;;;-0.61;94.98;100881.30;1406582;91;22163;-78
2022/02/11 06:15:11;;;;;;;26.53;18.93;;;;;;;-0.59;94.55;100886.00;1428229;91;22077;-77
2022/02/11 06:17:38;;;;;;;25.62;17.75;;;;;;;-0.56;94.53;100891.06;1421081;91;22083;-77
2022/02/11 06:20:09;;;;;;;29.02;19.10;;;;;;;-0.55;94.42;100911.78;1423239;91;21560;-77
2022/02/11 06:22:37;;;;;;;35.08;21.12;;;;;;;-0.53;94.46;100912.57;1425396;90;21428;-77
2022/02/11 06:25:05;;;;;;;25.55;17.20;;;;;;;-0.52;94.29;100909.08;1427462;91;21303;-77
2022/02/11 06:27:32;;;;;;;27.98;18.23;;;;;;;-0.48;94.77;100909.33;1431261;91;21368;-77
2022/02/11 06:29:59;;;;;;;29.70;18.48;;;;;;;-0.46;94.93;100906.22;1427299;91;21450;-77
2022/02/11 06:32:26;;;;;;;28.20;18.83;;;;;;;-0.40;95.05;100915.94;1421573;91;21569;-77
2022/02/11 06:34:56;;;;;;;26.80;18.83;;;;;;;-0.34;94.87;100915.25;1432629;91;21829;-77
2022/02/11 06:37:23;;;;;;;25.77;17.93;;;;;;;-0.28;94.89;100901.97;1424536;91;21682;-77
2022/02/11 06:39:50;;;;;;;28.55;19.00;;;;;;;-0.19;94.83;100900.72;1426253;91;21730;-77
2022/02/11 06:42:17;;;;;;;26.57;18.47;;;;;;;-0.11;94.62;100899.94;1432605;90;21531;-77
2022/02/11 06:44:44;;;;;;;29.40;20.03;;;;;;;-0.05;94.48;100893.15;1424151;91;22198;-77
2022/02/11 06:47:11;;;;;;;31.53;20.63;;;;;;;-0.01;94.11;100890.79;1430123;91;22713;-77
2022/02/11 06:49:38;;;;;;;28.33;19.07;;;;;;;0.01;93.66;100889.43;1421120;91;21557;-77
2022/02/11 06:52:05;;;;;;;31.17;19.97;;;;;;;0.02;93.38;100883.77;1434817;90;21722;-77
2022/02/11 06:54:32;;;;;;;25.70;16.60;;;;;;;-0.06;92.92;100885.40;1426192;91;22502;-77
2022/02/11 06:57:00;;;;;;;31.63;20.43;;;;;;;-0.10;92.93;100894.27;1428603;90;21625;-77
2022/02/11 06:59:27;;;;;;;26.70;18.07;;;;;;;-0.11;92.50;100890.83;1435641;90;21600;-77
2022/02/11 07:01:54;;;;;;;28.73;20.27;;;;;;;-0.08;92.65;100906.30;1435187;90;22154;-77
2022/02/11 07:04:21;;;;;;;22.73;15.97;;;;;;;-0.07;92.29;100907.14;1432464;91;21573;-77
2022/02/11 07:06:48;;;;;;;26.33;17.20;;;;;;;-0.01;92.53;100903.80;1433488;91;21633;-77
2022/02/11 07:09:16;;;;;;;26.70;17.77;;;;;;;0.06;92.79;100900.48;1429660;91;21754;-76
2022/02/11 07:11:43;;;;;;;25.73;17.97;;;;;;;0.16;92.97;100903.51;1425142;90;22603;-77
2022/02/11 07:14:11;;;;;;;27.10;18.50;;;;;;;0.25;92.52;100918.70;1429143;91;21613;-77
2022/02/11 07:16:38;;;;;;;27.00;19.90;;;;;;;0.25;91.76;100913.50;1424955;90;21659;-77
2022/02/11 07:19:05;;;;;;;25.23;16.57;;;;;;;0.31;91.93;100909.77;1428299;91;21663;-81
2022/02/11 07:21:33;;;;;;;27.40;18.10;;;;;;;0.38;91.95;100905.52;1429389;91;22598;-81
2022/02/11 07:24:00;;;;;;;29.73;19.17;;;;;;;0.43;91.61;100899.65;1426985;91;22515;-80
2022/02/11 07:26:27;;;;;;;37.47;22.07;;;;;;;0.49;91.19;100907.64;1424487;91;21635;-80
2022/02/11 07:28:54;;;;;;;33.03;20.53;;;;;;;0.55;91.37;100916.93;1426150;91;21718;-79
2022/02/11 07:31:21;;;;;;;30.63;19.90;;;;;;;0.53;90.52;100920.05;1402319;91;21603;-78
2022/02/11 07:33:48;;;;;;;33.20;21.43;;;;;;;0.45;90.41;100914.72;1427931;90;22486;-78
2022/02/11 07:36:15;;;;;;;29.80;18.27;;;;;;;0.47;90.58;100915.13;1417252;91;21614;-79
2022/02/11 07:38:42;;;;;;;26.30;18.40;;;;;;;0.48;90.75;100912.44;1430563;90;21595;-78
2022/02/11 07:41:12;;;;;;;26.23;17.47;;;;;;;0.54;91.17;100906.10;1424044;90;21664;-79
2022/02/11 07:43:39;;;;;;;32.30;18.53;;;;;;;0.56;90.77;100913.40;1428632;91;22690;-81
2022/02/11 07:46:07;;;;;;;25.53;17.17;;;;;;;0.44;89.92;100905.70;1422642;91;21748;-81
2022/02/11 07:48:34;;;;;;;26.93;17.90;;;;;;;0.40;89.77;100911.52;1420974;90;21645;-80
2022/02/11 07:51:01;;;;;;;32.70;20.60;;;;;;;0.36;89.92;100919.06;1423323;92;21670;-81
2022/02/11 07:53:29;;;;;;;31.77;19.63;;;;;;;0.36;90.21;100908.64;1424730;91;22569;-82
2022/02/11 07:55:55;;;;;;;24.83;17.13;;;;;;;0.36;90.25;100913.85;1423868;91;22511;-80
2022/02/11 07:58:26;;;;;;;25.37;17.80;;;;;;;0.29;90.11;100915.06;1424822;92;21755;-81
2022/02/11 08:00:55;;;;;;;28.87;18.92;;;;;;;0.23;89.95;100917.92;1415485;92;21719;-81
2022/02/11 08:03:23;;;;;;;24.47;16.53;;;;;;;0.04;90.26;100920.98;1422471;92;22381;-81
2022/02/11 08:05:51;;;;;;;24.90;16.73;;;;;;;-0.02;90.52;100923.41;1421863;92;21717;-80
2022/02/11 08:08:21;;;;;;;28.70;18.83;;;;;;;-0.10;90.62;100925.03;1420009;91;21431;-81
2022/02/11 08:10:48;;;;;;;23.50;16.20;;;;;;;-0.08;91.52;100938.83;1423088;91;21635;-83
2022/02/11 08:13:15;;;;;;;25.17;17.40;;;;;;;-0.04;91.70;100939.06;1415608;92;21534;-82
2022/02/11 08:15:42;;;;;;;26.20;17.50;;;;;;;0.02;91.86;100943.16;1433814;91;21658;-82
2022/02/11 08:18:09;;;;;;;23.17;15.80;;;;;;;0.03;91.79;100941.39;1432960;91;21658;-82
2022/02/11 08:20:37;;;;;;;25.83;17.27;;;;;;;0.05;91.64;100946.09;1430699;91;21761;-82
2022/02/11 08:23:04;;;;;;;27.93;17.77;;;;;;;0.02;91.60;100952.27;1443324;91;22521;-82
2022/02/11 08:25:34;;;;;;;28.23;19.23;;;;;;;0.05;91.88;100956.50;1431039;91;21642;-82
2022/02/11 08:28:02;;;;;;;28.20;18.23;;;;;;;0.03;91.61;100953.11;1436513;90;22636;-83
2022/02/11 08:30:29;;;;;;;25.27;17.10;;;;;;;0.14;92.48;100950.41;1412425;92;22571;-81
2022/02/11 08:32:56;;;;;;;31.30;19.53;;;;;;;0.28;92.79;100956.78;1414674;92;21530;-81
2022/02/11 08:35:23;;;;;;;26.87;17.37;;;;;;;0.40;92.75;100940.16;1386829;93;21612;-81
2022/02/11 08:37:50;;;;;;;30.60;19.90;;;;;;;0.57;92.91;100928.09;1394166;93;22555;-81
2022/02/11 08:40:17;;;;;;;26.07;18.23;;;;;;;0.71;92.65;100937.41;1429155;91;21691;-81
2022/02/11 08:42:44;;;;;;;25.93;17.87;;;;;;;0.87;92.30;100938.39;1433431;90;21622;-80
2022/02/11 08:45:12;;;;;;;29.10;19.40;;;;;;;1.00;91.44;100936.48;1429561;91;21704;-80
2022/02/11 08:47:39;;;;;;;29.23;19.67;;;;;;;0.98;90.12;100940.92;1426926;91;21727;-81
2022/02/11 08:50:07;;;;;;;25.43;17.67;;;;;;;1.07;90.39;100943.11;1430131;91;21626;-81
2022/02/11 08:52:35;;;;;;;21.57;15.80;;;;;;;1.10;89.65;100935.14;1428235;91;21700;-80
2022/02/11 08:55:03;;;;;;;22.37;15.47;;;;;;;1.04;88.79;100942.80;1427968;90;22172;-81
2022/02/11 08:57:32;;;;;;;24.17;17.13;;;;;;;1.09;89.16;100939.95;1425949;90;21626;-81
2022/02/11 08:59:59;;;;;;;23.40;15.73;;;;;;;1.18;89.34;100936.92;1438137;91;21710;-81
2022/02/11 09:02:26;;;;;;;22.50;16.00;;;;;;;1.27;89.03;100946.89;1429699;90;21689;-81
2022/02/11 09:04:54;;;;;;;22.77;15.47;;;;;;;1.37;88.94;100955.56;1420816;90;22629;-81
2022/02/11 09:07:21;;;;;;;24.83;17.47;;;;;;;1.42;88.44;100944.44;1431118;91;21677;-81
2022/02/11 09:09:48;;;;;;;31.13;21.17;;;;;;;1.54;88.54;100941.22;1411085;91;22774;-81
2022/02/11 09:12:15;;;;;;;41.13;25.83;;;;;;;1.58;87.61;100944.03;1429208;90;21807;-80
2022/02/11 09:14:43;;;;;;;37.80;25.33;;;;;;;1.69;88.02;100926.54;1431601;91;21714;-80
2022/02/11 09:17:10;;;;;;;38.97;26.13;;;;;;;1.79;87.25;100936.91;1411651;92;21805;-80
2022/02/11 09:19:37;;;;;;;43.07;28.37;;;;;;;1.86;87.05;100936.12;1410943;90;22013;-79
2022/02/11 09:22:05;;;;;;;44.37;28.17;;;;;;;1.84;86.82;100933.57;1437294;91;22784;-79
2022/02/11 09:24:32;;;;;;;39.30;26.40;;;;;;;1.77;85.43;100924.39;1440207;91;21961;-81
2022/02/11 09:27:01;;;;;;;44.33;29.60;;;;;;;1.77;85.43;100924.39;1440029;91;21829;-80
2022/02/11 09:29:35;;;;;;;35.63;25.40;;;;;;;1.89;86.91;100922.44;1450136;90;22002;-79
2022/02/11 09:32:02;;;;;;;38.20;25.07;;;;;;;2.03;86.70;100926.94;1412323;91;21849;-79
2022/02/11 09:34:32;;;;;;;29.50;20.67;;;;;;;2.33;87.62;100916.64;1444047;90;21940;-79
2022/02/11 09:36:58;;;;;;;28.03;18.43;;;;;;;2.48;86.49;100928.03;1453093;91;21852;-78
2022/02/11 09:39:25;;;;;;;28.27;19.97;;;;;;;2.48;86.49;100928.03;1440428;91;22928;-79
2022/02/11 09:41:54;;;;;;;29.17;20.67;;;;;;;2.67;84.92;100921.31;1435115;91;23061;-78
2022/02/11 09:44:24;;;;;;;27.93;19.20;;;;;;;2.71;84.17;100917.15;1437942;91;24034;-78
2022/02/11 09:46:52;;;;;;;33.63;22.47;;;;;;;2.71;84.17;100917.15;1433211;90;22122;-79
2022/02/11 09:49:19;;;;;;;35.27;24.07;;;;;;;2.85;85.22;100925.98;1424641;91;22589;-79
2022/02/11 09:51:48;;;;;;;32.67;22.77;;;;;;;2.97;85.29;100924.00;1422835;91;22090;-79
2022/02/11 09:54:22;;;;;;;35.20;22.50;;;;;;;3.02;84.40;100918.05;1424955;92;22759;-79
2022/02/11 09:56:52;;;;;;;39.30;26.03;;;;;;;2.97;83.02;100916.16;1416784;92;22119;-78
2022/02/11 09:59:19;;;;;;;33.13;24.05;;;;;;;2.99;83.44;100909.05;1426623;92;22184;-79
2022/02/11 10:01:48;;;;;;;32.73;19.53;;;;;;;3.01;83.41;100912.42;1415466;92;21449;-78
2022/02/11 10:04:19;;;;;;;31.00;19.93;;;;;;;3.05;84.29;100907.41;1428382;92;23991;-78
2022/02/11 10:06:48;;;;;;;30.80;20.37;;;;;;;3.19;84.53;100903.14;1430754;92;23151;-79
2022/02/11 10:09:19;;;;;;;28.03;20.00;;;;;;;3.25;83.65;100914.12;1411206;91;22210;-78
2022/02/11 10:11:46;;;;;;;30.48;19.42;;;;;;;3.34;84.13;100900.97;1406596;92;22313;-78
2022/02/11 10:14:33;;;;;;;24.17;18.30;;;;;;;3.52;84.28;100909.03;1416504;91;21405;-78
2022/02/11 10:17:08;;;;;;;25.37;18.20;;;;;;;3.52;84.28;100909.03;1408281;91;21412;-79
2022/02/11 10:19:42;;;;;;;27.73;19.87;;;;;;;3.63;83.75;100889.25;1427507;91;21412;-77
2022/02/11 10:22:25;;;;;;;57.80;36.33;;;;;;;3.50;82.84;100876.87;1428641;91;23165;-78
2022/02/11 10:24:56;;;;;;;29.93;20.10;;;;;;;3.50;82.84;100876.87;1406743;91;21568;-78
2022/02/11 10:27:30;;;;;;;27.10;19.60;;;;;;;3.54;83.49;100867.92;1431589;91;21642;-79
2022/02/11 10:30:08;;;;;;;26.43;19.10;;;;;;;3.68;83.67;100871.47;1424412;91;21354;-79
2022/02/11 10:32:48;;;;;;;28.83;21.17;;;;;;;3.86;83.99;100869.53;1417257;92;21404;-79
2022/02/11 10:35:28;;;;;;;25.82;19.60;;;;;;;4.02;84.14;100861.92;1425633;92;21530;-79
2022/02/11 10:38:09;;;;;;;29.13;21.33;;;;;;;4.10;83.22;100855.38;1424788;91;22418;-79
2022/02/11 10:40:40;;;;;;;;;;;;;;;4.12;81.45;100850.89;1447954;91;21670;-78
2022/02/11 10:43:26;;;;;;;32.83;23.30;;;;;;;4.23;82.00;100849.73;1437809;91;20322;-77
2022/02/11 10:45:54;;;;;;;36.57;22.00;;;;;;;4.25;81.72;100851.79;1417122;91;21377;-78
2022/02/11 10:48:23;;;;;;;34.23;23.97;;;;;;;4.41;82.62;100855.13;1421304;92;21450;-78
2022/02/11 10:50:57;;;;;;;30.90;22.07;;;;;;;4.56;82.44;100847.23;1374071;95;21384;-78
2022/02/11 10:53:34;;;;;;;34.43;23.93;;;;;;;4.73;82.44;100843.05;1405404;92;22459;-78
2022/02/11 10:56:03;;;;;;;33.87;23.57;;;;;;;4.83;81.85;100841.48;1412002;92;22279;-77
2022/02/11 10:58:32;;;;;;;33.77;24.17;;;;;;;4.77;80.76;100847.13;1396639;92;21333;-78
2022/02/11 11:01:02;;;;;;;33.17;21.70;;;;;;;4.81;81.12;100853.87;1396545;94;21406;-78
2022/02/11 11:03:33;;;;;;;36.35;25.00;;;;;;;4.79;80.83;100849.67;1387907;93;21503;-77
2022/02/11 11:06:03;;;;;;;39.47;27.50;;;;;;;4.87;80.85;100844.30;1420764;91;21488;-78
2022/02/11 11:08:42;;;;;;;37.30;23.98;;;;;;;4.97;81.39;100834.86;1418941;92;21464;-78
2022/02/11 11:11:11;;;;;;;35.23;24.43;;;;;;;4.92;80.73;100826.48;1420830;92;21465;-78
2022/02/11 11:13:40;;;;;;;34.13;25.80;;;;;;;5.03;81.00;100835.41;1389109;93;21370;-77
2022/02/11 11:16:11;;;;;;;35.73;23.97;;;;;;;5.16;81.39;100823.99;1389078;94;22175;-78
2022/02/11 11:18:38;;;;;;;36.77;25.65;;;;;;;5.23;80.45;100834.91;1385099;93;21488;-77
2022/02/11 11:21:11;;;;;;;35.37;26.13;;;;;;;5.36;80.98;100827.89;1393244;94;21444;-77
2022/02/11 11:23:56;;;;;;;40.70;28.40;;;;;;;5.67;81.41;100825.80;1414621;92;21541;-78
2022/02/11 11:26:43;;;;;;;49.97;34.50;;;;;;;6.04;80.83;100833.30;1412588;92;22360;-78
2022/02/11 11:29:22;;;;;;;46.47;29.20;;;;;;;6.41;79.26;100832.44;1413207;92;21413;-78
2022/02/11 11:31:57;;;;;;;35.87;24.67;;;;;;;6.99;77.32;100833.41;1411118;92;21882;-79
2022/02/11 11:34:56;;;;;;;33.00;24.30;;;;;;;7.30;73.12;100824.53;1390415;92;22481;-80
2022/02/11 11:37:23;;;;;;;33.07;25.47;;;;;;;7.55;72.99;100826.13;1382102;93;21569;-80
2022/02/11 11:39:54;;;;;;;33.77;24.43;;;;;;;7.96;74.15;100827.33;1371574;94;22616;-80
2022/02/11 11:42:21;;;;;;;35.73;27.90;;;;;;;7.98;72.26;100821.47;1381816;94;21428;-80
2022/02/11 11:44:54;;;;;;;32.60;25.23;;;;;;;8.25;72.68;100825.01;1378216;94;21562;-80
2022/02/11 11:47:43;;;;;;;34.77;25.77;;;;;;;8.62;73.17;100826.86;1385799;92;21576;-78
2022/02/11 11:50:08;;;;;;;39.80;25.73;;;;;;;9.16;73.51;100819.30;1399121;92;21504;-79
2022/02/11 11:52:46;;;;;;;30.03;24.37;;;;;;;9.55;68.96;100810.76;1412321;92;22327;-79
2022/02/11 11:55:21;;;;;;;31.20;26.53;;;;;;;9.81;69.50;100813.79;1397640;91;22353;-79
2022/02/11 11:57:49;;;;;;;30.77;25.57;;;;;;;9.41;65.21;100815.44;1398379;93;21634;-79
2022/02/11 12:00:37;;;;;;;38.57;28.30;;;;;;;9.61;68.00;100810.23;1404647;93;21406;-79
2022/02/11 12:03:05;;;;;;;41.13;32.20;;;;;;;10.02;69.13;100802.68;1347823;93;21584;-79
2022/02/11 12:05:55;;;;;;;37.83;29.97;;;;;;;10.48;68.31;100793.33;1403528;93;22330;-79
2022/02/11 12:08:29;;;;;;;39.42;31.23;;;;;;;10.83;67.01;100787.48;1414016;91;21488;-79
2022/02/11 12:10:59;;;;;;;33.57;28.00;;;;;;;11.35;66.77;100787.11;1423131;91;21601;-79
2022/02/11 12:13:27;;;;;;;33.27;26.23;;;;;;;11.79;65.92;100790.51;1399886;92;21575;-79
2022/02/11 12:15:54;;;;;;;36.53;28.97;;;;;;;11.93;60.10;100791.38;1405762;93;22411;-80
2022/02/11 12:18:24;;;;;;;40.20;30.93;;;;;;;11.72;60.42;100788.45;1386868;93;22374;-79
2022/02/11 12:20:50;;;;;;;37.57;31.13;;;;;;;11.78;63.13;100778.23;1419441;92;21478;-79
2022/02/11 12:28:51;;;;;;;34.63;26.57;;;;;;;13.40;62.58;100775.45;1400861;92;21553;-80
2022/02/11 12:31:25;;;;;;;35.87;26.83;;;;;;;13.77;59.83;100772.98;1410789;92;22745;-80
2022/02/11 12:33:54;;;;;;;33.90;27.47;;;;;;;13.86;59.12;100767.19;1422691;92;21644;-79
2022/02/11 12:36:21;;;;;;;32.67;26.27;;;;;;;14.09;59.05;100770.09;1408374;92;22451;-79
2022/02/11 12:39:00;;;;;;;30.95;24.35;;;;;;;14.16;58.12;100764.47;1401672;93;22463;-79
2022/02/11 12:41:46;;;;;;;29.37;23.57;;;;;;;14.32;58.43;100761.00;1414324;90;22198;-79
2022/02/11 12:44:30;;;;;;;30.00;25.87;;;;;;;14.28;54.55;100751.18;1417565;92;21354;-80
2022/02/11 12:46:59;;;;;;;31.80;24.92;;;;;;;14.02;55.39;100749.95;1407523;92;22550;-80
2022/02/11 12:49:33;;;;;;;30.82;25.37;;;;;;;13.99;56.38;100752.44;1398559;92;21398;-80
2022/02/11 12:52:00;;;;;;;30.83;23.73;;;;;;;13.98;55.58;100748.13;1432177;90;22469;-80
2022/02/11 12:54:28;;;;;;;32.83;23.73;;;;;;;13.89;55.82;100742.42;1407637;91;21448;-80
2022/02/11 12:57:03;;;;;;;24.80;19.70;;;;;;;13.97;55.10;100744.28;1413572;92;22358;-80
2022/02/11 12:59:31;;;;;;;25.93;18.97;;;;;;;14.05;55.36;100742.16;1437259;91;21398;-80
2022/02/11 13:01:58;;;;;;;26.17;19.70;;;;;;;14.05;52.50;100740.83;1431170;91;21472;-81
2022/02/11 13:04:44;;;;;;;23.03;18.57;;;;;;;14.05;53.29;100748.80;1432568;91;21398;-80
2022/02/11 13:07:13;;;;;;;24.70;18.30;;;;;;;13.81;52.88;100749.54;1438273;91;21419;-80
2022/02/11 13:09:42;;;;;;;35.80;22.83;;;;;;;13.74;54.66;100750.69;1432354;91;22277;-80
2022/02/11 13:12:09;;;;;;;23.73;19.73;;;;;;;13.87;54.20;100755.08;1432321;91;21449;-81
2022/02/11 13:14:44;;;;;;;26.03;18.70;;;;;;;13.95;52.89;100752.45;1435025;91;21405;-81
2022/02/11 13:17:11;;;;;;;23.70;18.57;;;;;;;13.96;52.62;100764.74;1431271;91;21398;-81
2022/02/11 13:19:38;;;;;;;25.93;17.37;;;;;;;13.58;52.68;100755.45;1437335;91;21449;-80
2022/02/11 13:22:06;;;;;;;25.60;19.00;;;;;;;13.14;53.08;100763.97;1438399;91;21442;-81
2022/02/11 13:24:34;;;;;;;25.30;19.50;;;;;;;12.85;54.80;100761.93;1429851;91;21442;-81
2022/02/11 13:27:02;;;;;;;28.63;20.03;;;;;;;12.51;55.10;100765.78;1417705;91;21442;-80
2022/02/11 13:29:29;;;;;;;27.20;17.03;;;;;;;11.95;55.81;100762.89;1436073;91;21405;-81
2022/02/11 13:31:58;;;;;;;26.40;18.27;;;;;;;11.59;56.43;100763.23;1437339;91;21486;-80
2022/02/11 13:34:26;;;;;;;29.40;19.63;;;;;;;11.24;57.05;100764.26;1427355;91;21450;-81
2022/02/11 13:37:04;;;;;;;24.47;18.30;;;;;;;10.95;58.07;100758.20;1438188;91;21449;-81
2022/02/11 13:39:32;;;;;;;30.20;20.60;;;;;;;10.63;59.22;100760.67;1429206;91;21493;-81
2022/02/11 13:42:12;;;;;;;27.17;20.63;;;;;;;10.47;60.06;100766.53;1425651;91;22410;-81
2022/02/11 13:44:39;;;;;;;31.40;21.07;;;;;;;10.28;60.62;100770.48;1436593;91;21553;-81
2022/02/11 13:47:16;;;;;;;30.03;20.07;;;;;;;10.12;61.61;100764.34;1406830;91;22613;-81
2022/02/11 13:49:43;;;;;;;27.20;20.20;;;;;;;10.00;62.06;100765.44;1442317;91;21545;-80
2022/02/11 13:55:03;;;;;;;29.13;19.90;;;;;;;9.80;62.97;100757.45;1439439;91;21413;-81
2022/02/11 13:57:35;;;;;;;30.17;19.23;;;;;;;9.74;62.94;100752.70;1438701;90;21582;-81
2022/02/11 14:00:36;;;;;;;30.90;21.17;;;;;;;9.68;63.12;100758.53;1435385;91;21607;-83
2022/02/11 14:03:01;;;;;;;35.13;20.70;;;;;;;9.65;63.00;100757.48;1416943;91;22241;-82
2022/02/11 14:05:29;;;;;;;35.43;21.37;;;;;;;9.64;63.63;100757.13;1444043;91;21494;-81
2022/02/11 14:07:57;;;;;;;37.13;23.03;;;;;;;9.61;63.57;100752.09;1441507;91;22330;-80
2022/02/11 14:10:24;;;;;;;33.37;23.00;;;;;;;9.62;63.87;100753.78;1436101;91;22446;-80
2022/02/11 14:13:09;;;;;;;45.33;26.00;;;;;;;9.61;64.08;100761.34;1430288;91;22278;-82
2022/02/11 14:15:37;;;;;;;45.47;26.50;;;;;;;9.60;64.19;100757.03;1437684;91;21404;-81
2022/02/11 14:18:06;;;;;;;42.93;25.10;;;;;;;9.60;64.31;100758.35;1440880;91;21338;-81
2022/02/11 14:20:36;;;;;;;38.07;24.43;;;;;;;9.60;64.44;100758.35;1432568;91;21448;-80
2022/02/11 14:23:18;;;;;;;36.53;22.70;;;;;;;9.61;64.80;100752.09;1441044;90;21832;-81
2022/02/11 14:25:46;;;;;;;43.20;25.30;;;;;;;9.60;64.68;100757.86;1430858;90;21360;-81
2022/02/11 14:28:16;;;;;;;38.67;26.83;;;;;;;9.57;65.78;100756.81;1438012;90;21317;-80
2022/02/11 14:30:45;;;;;;;75.42;46.13;;;;;;;9.43;67.05;100758.00;1444149;90;22395;-79
2022/02/11 14:33:13;;;;;;;82.30;50.60;;;;;;;9.23;68.24;100764.16;1432909;90;22042;-80
2022/02/11 14:35:41;;;;;;;60.33;42.77;;;;;;;8.94;69.66;100766.13;1434540;90;21397;-80
2022/02/11 14:38:08;;;;;;;64.17;42.43;;;;;;;8.77;69.80;100768.02;1446457;90;21620;-80
2022/02/11 14:40:37;;;;;;;46.43;33.30;;;;;;;8.64;72.17;100764.75;1439086;90;21576;-80
2022/02/11 14:43:05;;;;;;;128.00;73.70;;;;;;;8.30;74.40;100772.74;1441149;90;21418;-82
2022/02/11 14:45:32;;;;;;;81.53;51.17;;;;;;;8.12;75.29;100768.48;1434146;89;21466;-81
2022/02/11 14:48:00;;;;;;;115.13;62.47;;;;;;;7.95;75.43;100772.95;1440637;90;21397;-81
2022/02/11 14:50:28;;;;;;;65.97;43.90;;;;;;;7.78;75.43;100768.53;1438132;90;21532;-81
2022/02/11 14:52:56;;;;;;;130.20;71.37;;;;;;;7.67;76.18;100780.38;1436839;90;22523;-80
2022/02/11 14:55:23;;;;;;;103.90;60.37;;;;;;;7.59;75.71;100773.07;1424372;91;21435;-81
2022/02/11 14:57:52;;;;;;;117.77;66.00;;;;;;;7.44;78.23;100775.59;1435053;90;21451;-80
2022/02/11 15:00:20;;;;;;;124.07;68.20;;;;;;;7.37;76.55;100773.09;1437865;90;21827;-80
2022/02/11 15:02:47;;;;;;;102.57;59.63;;;;;;;7.30;77.87;100777.97;1433393;90;22506;-80
2022/02/11 15:05:14;;;;;;;132.93;75.33;;;;;;;7.21;77.71;100776.88;1433888;91;21664;-80
2022/02/11 15:07:44;;;;;;;101.13;58.07;;;;;;;7.13;78.11;100776.62;1436795;91;21443;-80
2022/02/11 15:10:10;;;;;;;82.53;47.63;;;;;;;7.13;77.27;100777.94;1436887;90;21443;-81